Time;durP1;ratioP1;P1;durP2;ratioP2;P2;SDS_P1;SDS_P2;PMS_P1;PMS_P2;Temp;Humidity;BMP_temperature;BMP_pressure;BME280_temperature;BME280_humidity;BME280_pressure;Samples;Min_cycle;Max_cycle;Signal;HPM_P1;HPM_P2
2023/01/19 00:01:09;;;;;;;3.15;1.30;;;;;;;;;;6059088;19;20551;-74
2023/01/19 00:03:14;;;;;;;4.70;1.60;;;;;;;;;;6106045;19;20006;-74
2023/01/19 00:05:20;;;;;;;6.95;2.10;;;;;;;;;;6101115;19;20019;-72
2023/01/19 00:07:24;;;;;;;9.52;2.10;;;;;;;;;;6100439;19;20479;-72
2023/01/19 00:09:32;;;;;;;7.45;2.53;;;;;;;;;;6100893;19;20031;-73
2023/01/19 00:11:37;;;;;;;4.95;1.80;;;;;;;;;;6105324;19;20098;-75
2023/01/19 00:13:48;;;;;;;5.30;1.52;;;;;;;;;;6104986;19;20007;-73
2023/01/19 00:15:56;;;;;;;1.27;0.88;;;;;;;;;;6104178;19;20010;-74
2023/01/19 00:18:00;;;;;;;1.27;0.90;;;;;;;;;;6077131;19;20010;-73
2023/01/19 00:20:06;;;;;;;2.50;0.93;;;;;;;;;;6077969;19;20007;-71
2023/01/19 00:22:11;;;;;;;0.60;0.60;;;;;;;;;;6104241;19;20003;-76
2023/01/19 00:24:16;;;;;;;2.35;1.15;;;;;;;;;;6099002;19;20014;-74
2023/01/19 00:26:23;;;;;;;5.57;1.00;;;;;;;;;;6099337;19;20010;-73
2023/01/19 00:28:28;;;;;;;1.75;0.80;;;;;;;;;;6103661;19;20014;-74
2023/01/19 00:30:34;;;;;;;0.98;0.85;;;;;;;;;;6103597;19;20550;-70
2023/01/19 00:32:41;;;;;;;1.85;0.85;;;;;;;;;;6100244;19;20508;-71
2023/01/19 00:34:48;;;;;;;4.65;1.17;;;;;;;;;;6105257;19;20011;-74
2023/01/19 00:36:53;;;;;;;1.45;1.15;;;;;;;;;;6060135;19;20340;-74
2023/01/19 00:38:58;;;;;;;2.60;0.98;;;;;;;;;;6097939;19;20563;-74
2023/01/19 00:41:04;;;;;;;3.03;1.13;;;;;;;;;;6102197;19;20022;-74
2023/01/19 00:43:06;;;;;;;1.08;0.77;;;;;;;;;;6105341;19;20019;-74
2023/01/19 00:45:17;;;;;;;2.95;1.17;;;;;;;;;;6104585;19;20010;-76
2023/01/19 00:47:22;;;;;;;4.68;1.45;;;;;;;;;;6080514;19;20049;-70
2023/01/19 00:49:29;;;;;;;4.60;1.10;;;;;;;;;;6103336;19;20102;-72
2023/01/19 00:51:37;;;;;;;1.25;1.15;;;;;;;;;;6079868;19;20026;-70
2023/01/19 00:53:41;;;;;;;6.28;1.45;;;;;;;;;;6102318;19;20034;-72
2023/01/19 00:55:46;;;;;;;3.40;1.05;;;;;;;;;;6085235;19;20014;-70
2023/01/19 00:57:51;;;;;;;1.52;1.38;;;;;;;;;;6102390;19;20010;-71
2023/01/19 00:59:56;;;;;;;2.58;1.20;;;;;;;;;;6107572;19;20010;-70
2023/01/19 01:02:01;;;;;;;3.70;1.35;;;;;;;;;;6085488;19;20011;-72
2023/01/19 01:04:07;;;;;;;7.40;1.50;;;;;;;;;;6104974;19;20043;-70
2023/01/19 01:06:14;;;;;;;6.43;1.67;;;;;;;;;;6081432;19;20436;-70
2023/01/19 01:08:19;;;;;;;4.45;1.40;;;;;;;;;;6104798;19;20042;-70
2023/01/19 01:10:26;;;;;;;3.10;1.15;;;;;;;;;;6085171;19;20581;-74
2023/01/19 01:12:35;;;;;;;2.03;0.98;;;;;;;;;;6103460;19;20010;-74
2023/01/19 01:14:40;;;;;;;2.58;1.15;;;;;;;;;;6107713;19;20085;-73
2023/01/19 01:16:45;;;;;;;2.92;1.10;;;;;;;;;;6106788;19;20007;-74
2023/01/19 01:18:49;;;;;;;2.20;1.10;;;;;;;;;;6084559;19;20070;-70
2023/01/19 01:20:54;;;;;;;4.78;1.17;;;;;;;;;;6107113;19;20026;-71
2023/01/19 01:23:03;;;;;;;5.40;1.17;;;;;;;;;;6105244;19;20630;-71
2023/01/19 01:25:09;;;;;;;4.25;1.80;;;;;;;;;;6106494;19;20014;-71
2023/01/19 01:27:14;;;;;;;2.05;1.02;;;;;;;;;;6098994;19;20030;-70
2023/01/19 01:29:19;;;;;;;2.92;1.33;;;;;;;;;;6100044;19;20014;-73
2023/01/19 01:31:24;;;;;;;3.85;1.13;;;;;;;;;;6104649;19;20039;-74
2023/01/19 01:33:29;;;;;;;5.38;1.05;;;;;;;;;;6086719;19;20086;-76
2023/01/19 01:35:44;;;;;;;3.80;1.38;;;;;;;;;;6082812;19;20007;-74
2023/01/19 01:37:49;;;;;;;4.40;0.95;;;;;;;;;;6079296;19;20006;-75
2023/01/19 01:39:57;;;;;;;1.83;1.02;;;;;;;;;;6101165;19;20416;-74
2023/01/19 01:42:02;;;;;;;5.68;1.02;;;;;;;;;;6102131;19;20430;-75
2023/01/19 01:44:36;;;;;;;3.33;0.95;;;;;;;;;;6104522;19;20019;-76
2023/01/19 01:46:41;;;;;;;1.42;0.80;;;;;;;;;;6102794;19;20077;-75
2023/01/19 01:48:50;;;;;;;2.78;0.73;;;;;;;;;;6104149;19;20019;-74
2023/01/19 01:53:16;;;;;;;3.28;0.98;;;;;;;;;;6099646;19;20100;-73
2023/01/19 01:55:25;;;;;;;4.70;1.15;;;;;;;;;;6080757;19;20011;-73
2023/01/19 01:57:32;;;;;;;4.45;1.30;;;;;;;;;;6103192;19;20018;-73
2023/01/19 01:59:42;;;;;;;2.53;1.20;;;;;;;;;;6105144;19;20010;-74
2023/01/19 02:04:05;;;;;;;7.80;1.50;;;;;;;;;;6105529;19;20086;-74
2023/01/19 02:06:12;;;;;;;4.50;1.67;;;;;;;;;;6104464;19;20010;-74
2023/01/19 02:15:18;;;;;;;6.43;1.88;;;;;;;;;;6081316;19;20021;-72
2023/01/19 02:17:23;;;;;;;4.35;1.25;;;;;;;;;;6102646;19;20011;-73
2023/01/19 02:19:31;;;;;;;4.63;1.35;;;;;;;;;;6107617;19;20414;-74
2023/01/19 02:21:41;;;;;;;3.97;1.20;;;;;;;;;;6105464;19;20013;-74
2023/01/19 02:23:50;;;;;;;6.05;1.40;;;;;;;;;;6102518;19;20070;-75
2023/01/19 02:25:55;;;;;;;2.78;1.25;;;;;;;;;;6103345;19;20006;-72
2023/01/19 02:28:02;;;;;;;2.45;0.93;;;;;;;;;;6100451;19;20364;-74
2023/01/19 02:30:08;;;;;;;1.77;1.67;;;;;;;;;;6103568;19;20010;-74
2023/01/19 02:32:14;;;;;;;4.03;0.82;;;;;;;;;;6104006;19;20095;-74
2023/01/19 02:34:20;;;;;;;4.93;0.90;;;;;;;;;;6099218;19;20127;-74
2023/01/19 02:36:29;;;;;;;3.55;1.48;;;;;;;;;;6082792;19;20014;-76
2023/01/19 02:38:35;;;;;;;2.22;0.85;;;;;;;;;;6083480;19;20028;-74
2023/01/19 02:40:44;;;;;;;1.40;1.00;;;;;;;;;;6083725;19;20014;-74
2023/01/19 02:42:51;;;;;;;5.65;1.30;;;;;;;;;;6102429;19;20042;-74
2023/01/19 02:44:59;;;;;;;2.58;0.90;;;;;;;;;;6103741;19;20044;-71
2023/01/19 02:47:05;;;;;;;2.38;1.08;;;;;;;;;;6102864;19;20749;-74
2023/01/19 02:49:12;;;;;;;0.95;0.90;;;;;;;;;;6101751;19;20416;-71
2023/01/19 02:51:20;;;;;;;0.80;0.80;;;;;;;;;;6098071;19;20006;-71
2023/01/19 02:54:06;;;;;;;0.80;0.80;;;;;;;;;;6080270;19;20017;-75
2023/01/19 02:56:43;;;;;;;2.75;1.20;;;;;;;;;;6103489;19;20011;-75
2023/01/19 02:58:58;;;;;;;2.78;1.27;;;;;;;;;;6099476;19;20038;-74
2023/01/19 03:01:11;;;;;;;4.57;1.45;;;;;;;;;;6102414;19;20011;-71
2023/01/19 03:03:25;;;;;;;1.08;1.00;;;;;;;;;;6078140;19;20018;-71
2023/01/19 03:05:42;;;;;;;1.50;1.05;;;;;;;;;;6100615;19;20471;-71
2023/01/19 03:07:52;;;;;;;3.67;1.30;;;;;;;;;;6102080;19;20011;-71
2023/01/19 03:10:06;;;;;;;1.73;1.08;;;;;;;;;;6103058;19;20071;-70
2023/01/19 03:12:19;;;;;;;2.25;1.13;;;;;;;;;;6101233;19;20307;-72
2023/01/19 03:14:30;;;;;;;3.25;0.95;;;;;;;;;;6101855;19;20010;-71
2023/01/19 03:16:40;;;;;;;4.35;1.25;;;;;;;;;;6103494;19;20007;-70
2023/01/19 03:18:48;;;;;;;0.82;0.82;;;;;;;;;;6103306;19;20605;-72
2023/01/19 03:20:55;;;;;;;1.58;0.93;;;;;;;;;;6102218;19;20028;-72
2023/01/19 03:23:03;;;;;;;5.78;1.23;;;;;;;;;;6104896;19;20021;-71
2023/01/19 03:25:09;;;;;;;3.88;1.25;;;;;;;;;;6104140;19;20682;-71
2023/01/19 03:27:18;;;;;;;2.13;1.10;;;;;;;;;;6079524;19;20106;-70
2023/01/19 03:29:27;;;;;;;2.75;1.20;;;;;;;;;;6106164;19;20060;-72
2023/01/19 03:31:34;;;;;;;1.90;1.30;;;;;;;;;;6082250;19;20019;-71
2023/01/19 03:33:40;;;;;;;2.60;1.65;;;;;;;;;;6079719;19;20475;-71
2023/01/19 03:35:50;;;;;;;5.93;2.08;;;;;;;;;;6102510;19;20484;-72
2023/01/19 03:37:57;;;;;;;8.18;1.98;;;;;;;;;;6105094;19;20018;-72
2023/01/19 03:40:02;;;;;;;7.22;1.90;;;;;;;;;;6102736;19;20014;-74
2023/01/19 03:42:10;;;;;;;5.90;2.25;;;;;;;;;;6102246;19;20011;-72
2023/01/19 03:44:15;;;;;;;7.10;2.08;;;;;;;;;;6102766;19;20006;-72
2023/01/19 03:46:24;;;;;;;8.80;1.55;;;;;;;;;;6102210;19;20043;-72
2023/01/19 03:48:29;;;;;;;9.93;2.08;;;;;;;;;;6100591;19;20476;-72
2023/01/19 03:50:34;;;;;;;3.75;2.10;;;;;;;;;;6102645;19;20031;-73
2023/01/19 03:52:39;;;;;;;5.35;1.73;;;;;;;;;;6098837;19;20018;-72
2023/01/19 03:54:45;;;;;;;7.07;1.90;;;;;;;;;;6102840;19;20635;-72
2023/01/19 03:56:51;;;;;;;6.38;1.60;;;;;;;;;;6075676;19;20011;-72
2023/01/19 03:58:56;;;;;;;14.85;2.30;;;;;;;;;;6098297;19;20014;-71
2023/01/19 04:01:02;;;;;;;5.40;1.83;;;;;;;;;;6099016;19;20345;-73
2023/01/19 04:03:14;;;;;;;4.47;1.67;;;;;;;;;;6101069;19;20010;-74
2023/01/19 04:05:19;;;;;;;12.95;1.98;;;;;;;;;;6098054;19;20091;-73
2023/01/19 04:07:24;;;;;;;5.97;2.08;;;;;;;;;;6096610;19;20021;-72
2023/01/19 04:09:29;;;;;;;6.72;1.83;;;;;;;;;;6097756;19;20018;-72
2023/01/19 04:11:34;;;;;;;12.02;2.92;;;;;;;;;;6096617;19;20013;-72
2023/01/19 04:13:39;;;;;;;9.52;1.73;;;;;;;;;;6098694;19;20024;-72
2023/01/19 04:15:46;;;;;;;8.10;2.47;;;;;;;;;;6101953;19;20014;-71
2023/01/19 04:17:51;;;;;;;9.45;2.05;;;;;;;;;;6104057;19;20011;-71
2023/01/19 04:19:59;;;;;;;16.98;2.22;;;;;;;;;;6104826;19;20383;-71
2023/01/19 04:22:04;;;;;;;8.10;2.35;;;;;;;;;;6105122;19;20365;-73
2023/01/19 04:24:10;;;;;;;7.90;2.17;;;;;;;;;;6107494;19;20046;-72
2023/01/19 04:26:15;;;;;;;7.25;2.30;;;;;;;;;;6105218;19;20031;-70
2023/01/19 04:28:20;;;;;;;13.90;3.05;;;;;;;;;;6106582;19;20078;-71
2023/01/19 04:30:25;;;;;;;8.93;2.50;;;;;;;;;;6104729;19;20014;-71
2023/01/19 04:32:29;;;;;;;7.82;1.88;;;;;;;;;;6104625;19;20022;-72
2023/01/19 04:34:34;;;;;;;14.43;2.72;;;;;;;;;;6106384;19;20023;-72
2023/01/19 04:36:44;;;;;;;19.38;3.78;;;;;;;;;;6104466;19;20376;-72
2023/01/19 04:38:48;;;;;;;14.63;2.50;;;;;;;;;;6105680;19;20326;-72
2023/01/19 04:40:54;;;;;;;8.85;2.67;;;;;;;;;;6106600;19;20014;-72
2023/01/19 04:42:59;;;;;;;14.82;2.50;;;;;;;;;;6105073;19;20039;-74
2023/01/19 04:45:06;;;;;;;27.38;2.95;;;;;;;;;;6109344;19;19999;-73
2023/01/19 04:47:11;;;;;;;14.02;3.58;;;;;;;;;;6108648;19;20014;-76
2023/01/19 04:49:16;;;;;;;12.20;2.60;;;;;;;;;;6103675;19;20011;-73
2023/01/19 04:51:21;;;;;;;10.07;2.58;;;;;;;;;;6106610;19;20018;-71
2023/01/19 04:53:31;;;;;;;15.88;3.47;;;;;;;;;;6105915;19;20025;-72
2023/01/19 04:55:36;;;;;;;8.18;2.58;;;;;;;;;;6107052;19;20019;-72
2023/01/19 04:57:41;;;;;;;13.00;2.72;;;;;;;;;;6104804;19;20362;-72
2023/01/19 04:59:46;;;;;;;8.55;1.98;;;;;;;;;;6102067;19;20017;-74
2023/01/19 05:01:51;;;;;;;12.85;2.38;;;;;;;;;;6105641;19;20011;-73
2023/01/19 05:03:56;;;;;;;14.85;2.58;;;;;;;;;;6107716;19;20423;-73
2023/01/19 05:06:01;;;;;;;12.85;2.95;;;;;;;;;;6104812;19;20079;-73
2023/01/19 05:08:06;;;;;;;13.85;2.55;;;;;;;;;;6106058;19;20018;-74
2023/01/19 05:10:18;;;;;;;9.52;1.80;;;;;;;;;;6101752;19;20017;-75
2023/01/19 05:12:23;;;;;;;9.38;2.40;;;;;;;;;;6106290;19;20015;-74
2023/01/19 05:14:28;;;;;;;15.77;2.88;;;;;;;;;;6106459;19;20053;-74
2023/01/19 05:16:33;;;;;;;20.13;3.30;;;;;;;;;;6107868;19;20634;-73
2023/01/19 05:18:38;;;;;;;7.78;2.70;;;;;;;;;;6106977;19;20090;-73
2023/01/19 05:20:43;;;;;;;16.52;2.92;;;;;;;;;;6108136;19;20011;-76
2023/01/19 05:22:51;;;;;;;14.50;2.35;;;;;;;;;;6105887;19;20010;-73
2023/01/19 05:24:56;;;;;;;12.90;2.67;;;;;;;;;;6104240;19;20011;-73
2023/01/19 05:27:06;;;;;;;12.57;2.92;;;;;;;;;;6105920;19;20042;-75
2023/01/19 05:29:13;;;;;;;10.05;3.17;;;;;;;;;;6107761;19;20017;-75
2023/01/19 05:31:18;;;;;;;12.07;2.50;;;;;;;;;;6100673;19;20013;-72
2023/01/19 05:33:23;;;;;;;16.40;3.25;;;;;;;;;;6103964;19;20396;-73
2023/01/19 05:35:28;;;;;;;18.48;3.03;;;;;;;;;;6104737;19;20349;-74
2023/01/19 05:37:39;;;;;;;10.85;2.30;;;;;;;;;;6107263;19;20526;-74
2023/01/19 05:39:44;;;;;;;12.43;2.83;;;;;;;;;;6099010;19;20542;-75
2023/01/19 05:41:49;;;;;;;13.63;3.08;;;;;;;;;;6101354;19;20022;-73
2023/01/19 05:43:57;;;;;;;11.82;2.53;;;;;;;;;;6107557;19;20011;-73
2023/01/19 05:46:06;;;;;;;9.25;2.25;;;;;;;;;;6107732;19;20032;-72
2023/01/19 05:48:11;;;;;;;26.27;3.38;;;;;;;;;;6106146;19;20038;-75
2023/01/19 05:50:19;;;;;;;4.53;1.88;;;;;;;;;;6104981;19;20014;-74
2023/01/19 05:52:23;;;;;;;10.60;2.53;;;;;;;;;;6104244;19;20854;-74
2023/01/19 05:54:28;;;;;;;8.63;2.75;;;;;;;;;;6107168;19;20006;-75
2023/01/19 05:56:34;;;;;;;11.68;2.72;;;;;;;;;;6105400;19;20321;-74
2023/01/19 05:58:40;;;;;;;17.65;3.38;;;;;;;;;;6084974;19;20011;-76
2023/01/19 06:00:50;;;;;;;12.15;2.90;;;;;;;;;;6104675;19;20373;-75
2023/01/19 06:02:55;;;;;;;11.18;2.47;;;;;;;;;;6106901;19;20014;-73
2023/01/19 06:05:01;;;;;;;12.20;2.63;;;;;;;;;;6084987;19;20035;-74
2023/01/19 06:07:06;;;;;;;15.20;2.92;;;;;;;;;;6084318;19;20487;-75
2023/01/19 06:09:12;;;;;;;15.27;2.95;;;;;;;;;;6107027;19;20082;-75
2023/01/19 06:11:17;;;;;;;11.73;2.70;;;;;;;;;;6101697;19;20021;-72
2023/01/19 06:13:21;;;;;;;16.85;2.38;;;;;;;;;;6105906;19;20010;-72
2023/01/19 06:15:26;;;;;;;12.85;2.83;;;;;;;;;;6104806;19;20037;-72
2023/01/19 06:17:34;;;;;;;8.93;2.30;;;;;;;;;;6101963;19;20013;-71
2023/01/19 06:19:39;;;;;;;6.05;2.35;;;;;;;;;;6102166;19;20007;-72
2023/01/19 06:21:48;;;;;;;12.60;2.55;;;;;;;;;;6103205;19;20475;-71
2023/01/19 06:23:53;;;;;;;10.50;2.75;;;;;;;;;;6105442;19;20010;-72
2023/01/19 06:26:01;;;;;;;9.82;2.58;;;;;;;;;;6106615;19;20018;-71
2023/01/19 06:28:06;;;;;;;6.57;2.17;;;;;;;;;;6106193;19;20070;-72
2023/01/19 06:30:13;;;;;;;8.48;2.50;;;;;;;;;;6104646;19;20629;-73
2023/01/19 06:32:18;;;;;;;7.95;2.30;;;;;;;;;;6104400;19;20011;-72
2023/01/19 06:34:27;;;;;;;7.40;2.20;;;;;;;;;;6107703;19;20022;-73
2023/01/19 06:36:32;;;;;;;7.57;1.83;;;;;;;;;;6106169;19;20042;-73
2023/01/19 06:38:37;;;;;;;10.45;2.58;;;;;;;;;;6107141;19;20042;-72
2023/01/19 06:40:42;;;;;;;6.75;1.92;;;;;;;;;;6101713;19;20402;-71
2023/01/19 06:42:47;;;;;;;8.68;2.05;;;;;;;;;;6087928;19;20006;-71
2023/01/19 06:44:52;;;;;;;7.88;2.20;;;;;;;;;;6101838;19;20106;-71
2023/01/19 06:46:57;;;;;;;5.40;2.35;;;;;;;;;;6104040;19;20018;-71
2023/01/19 06:49:19;;;;;;;12.70;2.28;;;;;;;;;;6102664;19;20006;-70
2023/01/19 06:51:26;;;;;;;8.55;2.30;;;;;;;;;;6106528;19;20018;-71
2023/01/19 06:53:35;;;;;;;6.93;1.85;;;;;;;;;;6102155;19;20117;-70
2023/01/19 06:55:40;;;;;;;3.72;1.80;;;;;;;;;;6107476;19;20014;-72
2023/01/19 06:57:46;;;;;;;10.52;2.70;;;;;;;;;;6105150;19;20006;-73
2023/01/19 06:59:51;;;;;;;8.77;2.58;;;;;;;;;;6086269;19;20021;-73
2023/01/19 07:01:57;;;;;;;13.63;3.10;;;;;;;;;;6102266;19;20027;-70
2023/01/19 07:04:22;;;;;;;8.05;2.47;;;;;;;;;;6080466;19;20454;-70
2023/01/19 07:06:29;;;;;;;7.63;3.47;;;;;;;;;;6099397;19;20002;-70
2023/01/19 07:08:35;;;;;;;6.38;3.00;;;;;;;;;;6085098;19;20052;-70
2023/01/19 07:10:40;;;;;;;10.00;3.28;;;;;;;;;;6104193;19;20546;-70
2023/01/19 07:13:05;;;;;;;9.00;2.72;;;;;;;;;;6100946;19;20018;-71
2023/01/19 07:15:11;;;;;;;13.18;3.33;;;;;;;;;;6078061;19;20887;-71
2023/01/19 07:17:16;;;;;;;5.95;3.08;;;;;;;;;;6100755;19;20011;-72
2023/01/19 07:19:21;;;;;;;6.20;2.47;;;;;;;;;;6094831;19;20015;-71
2023/01/19 07:21:25;;;;;;;8.55;2.88;;;;;;;;;;6102527;19;20075;-72
2023/01/19 07:23:36;;;;;;;6.70;2.60;;;;;;;;;;6095058;19;20002;-71
2023/01/19 07:25:41;;;;;;;9.63;2.40;;;;;;;;;;6096365;19;20006;-72
2023/01/19 07:27:46;;;;;;;7.03;1.95;;;;;;;;;;6076757;19;20458;-73
2023/01/19 07:29:51;;;;;;;15.02;2.72;;;;;;;;;;6101020;19;20021;-72
2023/01/19 07:31:56;;;;;;;10.02;2.40;;;;;;;;;;6102944;19;20017;-72
2023/01/19 07:34:00;;;;;;;9.52;2.25;;;;;;;;;;6105001;19;20628;-72
2023/01/19 07:36:07;;;;;;;8.02;3.65;;;;;;;;;;6105062;19;20010;-72
2023/01/19 07:38:12;;;;;;;12.32;4.03;;;;;;;;;;6104785;19;20010;-72
2023/01/19 07:40:20;;;;;;;9.48;2.67;;;;;;;;;;6103899;19;20733;-70
2023/01/19 07:42:27;;;;;;;13.82;3.13;;;;;;;;;;6079192;19;20010;-71
2023/01/19 07:44:34;;;;;;;7.22;2.33;;;;;;;;;;6099826;19;20017;-71
2023/01/19 07:46:40;;;;;;;8.32;3.05;;;;;;;;;;6078905;19;20023;-71
2023/01/19 07:48:46;;;;;;;9.43;2.22;;;;;;;;;;6099596;19;20002;-71
2023/01/19 07:50:51;;;;;;;10.27;2.63;;;;;;;;;;6104524;19;20049;-74
2023/01/19 07:52:56;;;;;;;6.60;2.50;;;;;;;;;;6107714;19;20015;-73
2023/01/19 07:55:01;;;;;;;12.65;2.88;;;;;;;;;;6087495;19;20273;-73
2023/01/19 07:57:08;;;;;;;11.40;2.53;;;;;;;;;;6108374;19;20062;-73
2023/01/19 07:59:13;;;;;;;6.55;2.13;;;;;;;;;;6109341;19;20483;-71
2023/01/19 08:01:18;;;;;;;5.82;1.85;;;;;;;;;;6105162;19;20019;-71
2023/01/19 08:03:23;;;;;;;7.63;2.35;;;;;;;;;;6107035;19;20010;-71
2023/01/19 08:05:34;;;;;;;16.75;3.03;;;;;;;;;;6109666;19;20032;-70
2023/01/19 08:07:39;;;;;;;8.63;2.53;;;;;;;;;;6109905;19;20090;-73
2023/01/19 08:09:43;;;;;;;8.10;2.88;;;;;;;;;;6108450;19;20011;-75
2023/01/19 08:11:48;;;;;;;7.35;1.92;;;;;;;;;;6088251;19;20010;-73
2023/01/19 08:13:56;;;;;;;7.93;2.50;;;;;;;;;;6108532;19;20022;-73
2023/01/19 08:16:01;;;;;;;7.88;2.65;;;;;;;;;;6112346;19;20017;-74
2023/01/19 08:18:10;;;;;;;8.35;2.38;;;;;;;;;;6107606;19;20039;-74
2023/01/19 08:20:16;;;;;;;6.97;2.55;;;;;;;;;;6106428;19;20558;-74
2023/01/19 08:22:21;;;;;;;10.40;2.60;;;;;;;;;;6090455;19;20446;-73
2023/01/19 08:24:27;;;;;;;11.10;3.15;;;;;;;;;;6108418;19;20026;-73
2023/01/19 08:26:37;;;;;;;7.97;2.65;;;;;;;;;;6088464;19;20475;-74
2023/01/19 08:28:42;;;;;;;7.65;2.50;;;;;;;;;;6110140;19;20557;-74
2023/01/19 08:30:52;;;;;;;4.70;2.10;;;;;;;;;;6087269;19;20019;-74
2023/01/19 08:33:02;;;;;;;10.95;2.50;;;;;;;;;;6108370;19;20014;-73
2023/01/19 08:35:09;;;;;;;7.75;2.50;;;;;;;;;;6089612;19;20240;-73
2023/01/19 08:37:14;;;;;;;15.18;2.85;;;;;;;;;;6106674;19;20007;-73
2023/01/19 08:39:19;;;;;;;10.75;2.50;;;;;;;;;;6104886;19;20018;-71
2023/01/19 08:41:23;;;;;;;7.07;2.88;;;;;;;;;;6108465;19;20036;-73
2023/01/19 08:43:28;;;;;;;9.75;2.63;;;;;;;;;;6107656;19;20094;-73
2023/01/19 08:45:34;;;;;;;7.95;2.55;;;;;;;;;;6107801;19;20011;-73
2023/01/19 08:47:41;;;;;;;4.60;2.33;;;;;;;;;;6105374;19;20098;-74
2023/01/19 08:49:46;;;;;;;10.23;2.35;;;;;;;;;;6087750;19;20066;-74
2023/01/19 08:51:51;;;;;;;8.85;2.55;;;;;;;;;;6086772;19;20472;-74
2023/01/19 08:53:56;;;;;;;10.00;3.20;;;;;;;;;;6102997;19;20387;-73
2023/01/19 08:56:04;;;;;;;11.48;3.38;;;;;;;;;;6087962;19;21466;-75
2023/01/19 08:58:10;;;;;;;9.07;2.65;;;;;;;;;;6106232;19;20014;-74
2023/01/19 09:00:19;;;;;;;6.18;2.33;;;;;;;;;;6107573;19;20028;-74
2023/01/19 09:02:24;;;;;;;9.65;2.20;;;;;;;;;;6105084;19;20248;-72
2023/01/19 09:04:33;;;;;;;7.15;2.15;;;;;;;;;;6086057;19;20085;-72
2023/01/19 09:06:38;;;;;;;7.60;2.28;;;;;;;;;;6083361;19;20587;-72
2023/01/19 09:08:43;;;;;;;7.32;2.47;;;;;;;;;;6107959;19;20032;-74
2023/01/19 09:10:51;;;;;;;10.27;2.60;;;;;;;;;;6087337;19;20574;-75
2023/01/19 09:12:55;;;;;;;8.02;2.42;;;;;;;;;;6089401;19;20014;-75
2023/01/19 09:15:01;;;;;;;9.88;2.30;;;;;;;;;;6090361;19;20535;-72
2023/01/19 09:17:06;;;;;;;4.85;2.47;;;;;;;;;;6107257;19;20416;-73
2023/01/19 09:19:12;;;;;;;7.43;1.95;;;;;;;;;;6107143;19;20042;-76
2023/01/19 09:21:20;;;;;;;10.38;2.75;;;;;;;;;;6103184;19;20007;-73
2023/01/19 09:23:25;;;;;;;7.47;2.55;;;;;;;;;;6112999;19;20041;-75
2023/01/19 09:25:31;;;;;;;5.47;2.53;;;;;;;;;;6112320;19;20459;-73
2023/01/19 09:27:37;;;;;;;6.45;2.17;;;;;;;;;;6094212;19;20018;-74
2023/01/19 09:29:42;;;;;;;5.53;2.03;;;;;;;;;;6114240;19;20558;-76
2023/01/19 09:31:47;;;;;;;5.22;1.75;;;;;;;;;;6112667;19;20007;-72
2023/01/19 09:33:52;;;;;;;7.35;2.28;;;;;;;;;;6092588;19;20468;-72
2023/01/19 09:35:57;;;;;;;8.30;2.20;;;;;;;;;;6112838;19;20406;-71
2023/01/19 09:38:09;;;;;;;8.07;2.38;;;;;;;;;;6111255;19;20102;-71
2023/01/19 09:40:16;;;;;;;7.10;2.28;;;;;;;;;;6087303;19;20003;-72
2023/01/19 09:42:24;;;;;;;4.93;2.40;;;;;;;;;;6109460;19;20408;-72
2023/01/19 09:44:31;;;;;;;7.18;2.05;;;;;;;;;;6087084;19;20449;-71
2023/01/19 09:46:40;;;;;;;6.97;2.10;;;;;;;;;;6108220;19;20014;-71
2023/01/19 09:48:48;;;;;;;8.15;2.40;;;;;;;;;;6109378;19;20075;-71
2023/01/19 09:50:53;;;;;;;8.60;2.03;;;;;;;;;;6106673;19;20139;-72
2023/01/19 09:52:59;;;;;;;7.10;2.05;;;;;;;;;;6084259;19;20011;-72
2023/01/19 09:55:20;;;;;;;8.20;2.28;;;;;;;;;;6106025;19;20018;-72
2023/01/19 09:57:26;;;;;;;8.30;2.13;;;;;;;;;;6104269;19;20010;-71
2023/01/19 09:59:35;;;;;;;4.18;1.88;;;;;;;;;;6105716;19;20033;-71
2023/01/19 10:01:48;;;;;;;5.05;1.73;;;;;;;;;;6087057;19;20018;-71
2023/01/19 10:04:06;;;;;;;2.78;1.42;;;;;;;;;;6106033;19;20290;-71
2023/01/19 10:06:13;;;;;;;3.40;1.67;;;;;;;;;;6107650;19;20045;-72
2023/01/19 10:08:21;;;;;;;4.47;1.65;;;;;;;;;;6104478;19;20019;-72
2023/01/19 10:10:32;;;;;;;2.65;1.73;;;;;;;;;;6105781;19;20602;-71
2023/01/19 10:12:54;;;;;;;2.83;1.40;;;;;;;;;;6103270;19;20006;-71
2023/01/19 10:15:05;;;;;;;2.10;1.48;;;;;;;;;;6088906;19;20391;-72
2023/01/19 10:17:21;;;;;;;3.33;1.30;;;;;;;;;;6083451;19;20003;-72
2023/01/19 10:19:35;;;;;;;3.72;1.30;;;;;;;;;;6099772;19;20074;-71
2023/01/19 10:21:42;;;;;;;5.70;1.33;;;;;;;;;;6106494;19;20021;-72
2023/01/19 10:23:52;;;;;;;5.75;1.25;;;;;;;;;;6105644;19;20013;-71
2023/01/19 10:26:05;;;;;;;3.92;1.52;;;;;;;;;;6082754;19;20014;-72
2023/01/19 10:28:10;;;;;;;1.95;1.30;;;;;;;;;;6105787;19;20114;-71
2023/01/19 10:30:22;;;;;;;3.15;1.30;;;;;;;;;;6082880;19;20015;-71
2023/01/19 10:32:29;;;;;;;5.25;1.50;;;;;;;;;;6105931;19;20028;-71
2023/01/19 10:34:34;;;;;;;4.38;1.50;;;;;;;;;;6102621;19;20015;-72
2023/01/19 10:36:41;;;;;;;3.42;1.35;;;;;;;;;;6104354;19;20053;-72
2023/01/19 10:38:46;;;;;;;4.10;1.38;;;;;;;;;;6083207;19;20415;-71
2023/01/19 10:40:57;;;;;;;4.68;1.75;;;;;;;;;;6102841;19;20374;-72
2023/01/19 10:43:44;;;;;;;4.57;1.23;;;;;;;;;;6103207;19;20341;-72
2023/01/19 10:45:51;;;;;;;6.70;1.77;;;;;;;;;;6101025;19;20035;-72
2023/01/19 10:47:57;;;;;;;3.97;1.40;;;;;;;;;;6082722;19;20116;-72
2023/01/19 10:50:08;;;;;;;5.40;1.30;;;;;;;;;;6080992;19;20018;-73
2023/01/19 10:52:22;;;;;;;6.53;1.30;;;;;;;;;;6101291;19;20014;-71
2023/01/19 10:54:28;;;;;;;5.07;1.30;;;;;;;;;;6082178;19;20032;-72
2023/01/19 10:56:37;;;;;;;3.65;1.40;;;;;;;;;;6081445;19;20016;-74
2023/01/19 10:58:44;;;;;;;2.65;1.30;;;;;;;;;;6082014;19;20363;-74
2023/01/19 11:00:49;;;;;;;3.17;1.42;;;;;;;;;;6101540;19;20040;-73
2023/01/19 11:02:54;;;;;;;7.82;1.52;;;;;;;;;;6080667;19;20018;-73
2023/01/19 11:05:01;;;;;;;4.80;1.70;;;;;;;;;;6104423;19;20034;-72
2023/01/19 11:07:16;;;;;;;8.15;2.45;;;;;;;;;;6105337;19;20502;-72
2023/01/19 11:09:22;;;;;;;2.60;1.20;;;;;;;;;;6100791;19;20011;-71
2023/01/19 11:11:27;;;;;;;1.33;0.90;;;;;;;;;;6101136;19;20304;-72
2023/01/19 11:13:32;;;;;;;9.82;1.70;;;;;;;;;;6102771;19;20627;-72
2023/01/19 11:15:44;;;;;;;1.85;1.10;;;;;;;;;;6106060;19;20026;-73
2023/01/19 11:17:49;;;;;;;4.53;1.60;;;;;;;;;;6101214;19;20002;-72
2023/01/19 11:19:57;;;;;;;3.03;1.40;;;;;;;;;;6104638;19;20460;-72
2023/01/19 11:22:20;;;;;;;5.75;2.17;;;;;;;;;;6105341;19;20006;-72
2023/01/19 11:24:25;;;;;;;;;;;;;;;;;;6104145;19;20011;-71
2023/01/19 11:26:31;;;;;;;2.85;1.42;;;;;;;;;;6101372;19;19995;-72
2023/01/19 11:28:38;;;;;;;2.75;1.42;;;;;;;;;;6101955;19;20616;-72
2023/01/19 11:30:55;;;;;;;8.27;1.77;;;;;;;;;;6105515;19;20025;-73
2023/01/19 11:33:01;;;;;;;4.53;1.92;;;;;;;;;;6104259;19;20043;-74
2023/01/19 11:35:34;;;;;;;7.22;1.90;;;;;;;;;;6099886;19;20021;-74
2023/01/19 11:37:41;;;;;;;1.98;1.30;;;;;;;;;;6096693;19;20344;-71
2023/01/19 11:39:48;;;;;;;3.60;1.20;;;;;;;;;;6105771;19;20012;-72
2023/01/19 11:41:56;;;;;;;1.92;1.30;;;;;;;;;;6084800;19;20003;-72
2023/01/19 11:44:10;;;;;;;4.65;1.63;;;;;;;;;;6098919;19;20013;-72
2023/01/19 11:46:18;;;;;;;3.97;1.75;;;;;;;;;;6104405;19;20086;-72
2023/01/19 11:48:33;;;;;;;6.25;1.70;;;;;;;;;;6101872;19;20504;-73
2023/01/19 11:50:43;;;;;;;4.85;1.75;;;;;;;;;;6103139;19;20014;-72
2023/01/19 11:52:53;;;;;;;4.63;1.65;;;;;;;;;;6101003;19;20340;-72
2023/01/19 11:55:04;;;;;;;4.20;1.67;;;;;;;;;;6085357;19;20014;-73
2023/01/19 11:57:18;;;;;;;3.33;1.45;;;;;;;;;;6101855;19;20015;-72
2023/01/19 11:59:24;;;;;;;6.07;1.77;;;;;;;;;;6100227;19;20547;-72
2023/01/19 12:01:34;;;;;;;4.07;2.67;;;;;;;;;;6099204;19;20019;-72
2023/01/19 12:03:42;;;;;;;5.03;1.80;;;;;;;;;;6102326;19;20014;-72
2023/01/19 12:05:50;;;;;;;3.85;2.13;;;;;;;;;;6098423;19;20014;-71
2023/01/19 12:07:54;;;;;;;8.63;2.00;;;;;;;;;;6104275;19;20056;-72
2023/01/19 12:10:08;;;;;;;7.57;1.85;;;;;;;;;;6078862;19;20466;-72
2023/01/19 12:12:16;;;;;;;4.65;1.50;;;;;;;;;;6101872;19;20039;-72
2023/01/19 12:14:25;;;;;;;3.22;2.22;;;;;;;;;;6102331;19;20043;-72
2023/01/19 12:16:38;;;;;;;3.08;1.40;;;;;;;;;;6103257;19;20102;-73
2023/01/19 12:18:49;;;;;;;8.15;1.70;;;;;;;;;;6102206;19;20014;-73
2023/01/19 12:20:57;;;;;;;5.03;1.67;;;;;;;;;;6102398;19;20089;-72
2023/01/19 12:23:20;;;;;;;6.85;1.60;;;;;;;;;;6103657;19;20439;-72
2023/01/19 12:25:28;;;;;;;3.60;2.03;;;;;;;;;;6098467;19;20074;-72
2023/01/19 12:27:39;;;;;;;4.65;1.65;;;;;;;;;;6081905;19;20035;-75
2023/01/19 12:29:47;;;;;;;4.60;1.40;;;;;;;;;;6081626;19;20061;-73
2023/01/19 12:32:35;;;;;;;4.60;1.75;;;;;;;;;;6096803;19;20114;-71
2023/01/19 12:34:42;;;;;;;2.22;1.55;;;;;;;;;;6105731;19;20455;-72
2023/01/19 12:36:48;;;;;;;2.05;1.80;;;;;;;;;;6108661;19;20035;-72
2023/01/19 12:38:55;;;;;;;3.72;1.65;;;;;;;;;;6113488;19;20014;-75
2023/01/19 12:41:32;;;;;;;3.47;1.38;;;;;;;;;;6113250;19;20039;-74
2023/01/19 12:43:37;;;;;;;3.15;1.55;;;;;;;;;;6089076;19;20395;-75
2023/01/19 12:45:43;;;;;;;3.58;1.55;;;;;;;;;;6108995;19;20007;-74
2023/01/19 12:47:55;;;;;;;3.90;1.70;;;;;;;;;;6113651;19;20018;-73
2023/01/19 12:50:06;;;;;;;4.68;1.63;;;;;;;;;;6112051;19;20051;-74
2023/01/19 12:52:18;;;;;;;2.72;1.55;;;;;;;;;;6110509;19;20031;-73
2023/01/19 12:54:28;;;;;;;5.05;1.95;;;;;;;;;;6110563;19;20418;-73
2023/01/19 12:56:35;;;;;;;5.60;1.70;;;;;;;;;;6111589;19;20090;-72